Wind From: 13-12-2017 10:08 Until: 14-12-2017 06:00 warning for: Wind Level: Yellow info button

Although rather usual in this region, locally or potentially dangerous phenomena are expected. (such as local winds, summer thunderstorms, rising streams or high waves) Be aware and pay attention to the latest weather updates, especially if you carry out activities exposed to weather or close to a stream or shoreline. 


Meteo18 Weather Cam more information Meteo18 Weather Cam


Thunder radar more information blitzortung!


Rain radar more information rain snow radar


Visit our other weather sites:

Template documentation
and downloads

And another site



Weather Underground History page Text

Daily Summary for September 26, 2017 Units:  English    Metric   Both
« Previous Day
Next Day »
Daily Weekly Monthly Yearly Custom
  High: Low: Average:
Temperature: 66.7 °F 55.8 °F 60.3 °F
Dew Point: 61.2 °F 54.7 °F 57.6 °F
Humidity: 97 % 74 % 91 %
Wind Speed: 10 mph 0 mph 1.1 mph
Wind Gust: 14 mph - -
Wind:- - WSW
Pressure: 30.2 in 30.1 in -
Precipitation: 0.01 in    
Historical Graphs
 
 
Tabular Data for September 26, 2017
Time Temperature Dew Point Pressure Wind Wind Speed Wind Gust Humidity Rainfall Rate (Hourly)
00:02 57.6 °F 56.5 °F 30.2 in Calm     96 % 0 in
00:12 57.6 °F 56.7 °F 30.2 in Calm     97 % 0 in
00:17 57.6 °F 56.7 °F 30.2 in Calm     97 % 0 in
00:22 57.7 °F 56.8 °F 30.2 in Calm     97 % 0 in
00:32 57.7 °F 56.8 °F 30.2 in Calm   2 mph 97 % 0 in
00:37 57.7 °F 56.8 °F 30.2 in Calm   2 mph 97 % 0 in
00:42 57.7 °F 56.8 °F 30.2 in Calm   1 mph 97 % 0 in
00:47 57.7 °F 56.8 °F 30.2 in Calm   1 mph 97 % 0 in
00:57 57.6 °F 56.7 °F 30.2 in Calm     97 % 0 in
01:02 57.6 °F 56.7 °F 30.2 in Calm     97 % 0 in
01:12 57.6 °F 56.7 °F 30.2 in Calm     97 % 0 in
01:17 57.7 °F 56.8 °F 30.2 in Calm     97 % 0 in
01:22 57.7 °F 56.8 °F 30.2 in Calm     97 % 0 in
01:32 57.9 °F 57 °F 30.2 in Calm     97 % 0 in
01:42 57.9 °F 57 °F 30.2 in Calm     97 % 0 in
01:47 57.9 °F 57 °F 30.2 in Calm     97 % 0 in
01:52 57.9 °F 57 °F 30.2 in Calm     97 % 0 in
01:57 57.9 °F 57 °F 30.2 in West 1 mph 3 mph 97 % 0 in
02:02 57.9 °F 57 °F 30.2 in West 1 mph 3 mph 97 % 0 in
02:12 58.1 °F 57.2 °F 30.2 in Calm   3 mph 97 % 0 in
02:17 58.1 °F 57 °F 30.2 in Calm   1 mph 96 % 0 in
02:22 58.3 °F 57.2 °F 30.1 in Calm   1 mph 96 % 0 in
02:27 58.1 °F 57 °F 30.1 in Calm   2 mph 96 % 0 in
02:32 57.9 °F 56.8 °F 30.1 in Calm   2 mph 96 % 0 in
02:37 57.7 °F 56.7 °F 30.1 in Calm   1 mph 96 % 0 in
02:42 57.9 °F 56.8 °F 30.1 in Calm   1 mph 96 % 0 in
02:52 57.9 °F 56.8 °F 30.1 in Calm   1 mph 96 % 0 in
03:02 57.6 °F 56.5 °F 30.1 in Calm     96 % 0 in
03:12 57.6 °F 56.5 °F 30.1 in Calm     96 % 0 in
03:17 57.6 °F 56.5 °F 30.1 in Calm     96 % 0 in
03:22 57.4 °F 56.3 °F 30.1 in Calm     96 % 0 in
03:27 57.4 °F 56.3 °F 30.1 in Calm     96 % 0 in
03:32 57.4 °F 56.3 °F 30.1 in Calm     96 % 0 in
03:42 57.4 °F 56.3 °F 30.1 in Calm     96 % 0 in
03:47 57.2 °F 56.1 °F 30.1 in Calm     96 % 0 in
03:52 57 °F 55.9 °F 30.1 in Calm     96 % 0 in
03:57 56.8 °F 55.8 °F 30.1 in Calm     96 % 0 in
04:02 56.7 °F 55.6 °F 30.1 in Calm     96 % 0 in
04:12 56.8 °F 55.8 °F 30.1 in SW 1 mph   96 % 0 in
04:22 56.8 °F 55.8 °F 30.1 in Calm   2 mph 96 % 0 in
04:32 56.5 °F 55.4 °F 30.1 in Calm   2 mph 96 % 0 in
04:37 56.5 °F 55.4 °F 30.1 in Calm   3 mph 96 % 0 in
04:42 56.5 °F 55.4 °F 30.1 in SW 1 mph 3 mph 96 % 0 in
04:47 56.7 °F 55.8 °F 30.1 in WSW 1 mph 3 mph 97 % 0 in
04:52 56.8 °F 55.9 °F 30.1 in SW 1 mph 3 mph 97 % 0 in
04:57 56.8 °F 55.9 °F 30.1 in Calm   3 mph 97 % 0 in
05:02 56.5 °F 55.4 °F 30.1 in Calm   3 mph 96 % 0 in
05:07 56.1 °F 55 °F 30.1 in Calm   3 mph 96 % 0.01 in
05:12 56.1 °F 55 °F 30.1 in Calm   3 mph 96 % 0.01 in
05:22 55.9 °F 54.9 °F 30.1 in Calm     96 % 0.01 in
05:27 55.8 °F 54.7 °F 30.1 in Calm   1 mph 96 % 0.01 in
05:32 55.8 °F 54.9 °F 30.1 in Calm   1 mph 97 % 0.01 in
05:42 55.9 °F 55 °F 30.1 in Calm     97 % 0.01 in
05:52 56.1 °F 55.2 °F 30.1 in Calm     97 % 0.01 in
06:02 56.5 °F 55.6 °F 30.1 in Calm     97 % 0.01 in
06:12 56.3 °F 55.4 °F 30.1 in Calm     97 % 0 in
06:17 56.1 °F 55.2 °F 30.2 in Calm     97 % 0 in
06:22 56.1 °F 55.2 °F 30.2 in Calm     97 % 0 in
06:32 56.1 °F 55.2 °F 30.2 in Calm     97 % 0 in
06:42 56.1 °F 55.2 °F 30.2 in Calm   1 mph 97 % 0 in
06:52 56.3 °F 55.4 °F 30.2 in Calm     97 % 0 in
07:02 56.5 °F 55.6 °F 30.2 in Calm     97 % 0 in
07:07 56.5 °F 55.6 °F 30.2 in Calm   2 mph 97 % 0 in
07:12 56.7 °F 55.8 °F 30.2 in Calm   2 mph 97 % 0 in
07:17 56.8 °F 55.9 °F 30.2 in Calm   2 mph 97 % 0 in
07:22 56.8 °F 55.9 °F 30.2 in Calm   2 mph 97 % 0 in
07:32 56.8 °F 55.9 °F 30.2 in Calm     97 % 0 in
07:37 56.8 °F 55.9 °F 30.2 in Calm     97 % 0 in
07:42 56.8 °F 55.9 °F 30.2 in Calm     97 % 0 in
07:47 56.8 °F 55.9 °F 30.2 in Calm     97 % 0 in
07:52 56.8 °F 55.9 °F 30.2 in Calm     97 % 0 in
07:57 56.8 °F 55.9 °F 30.2 in Calm     97 % 0 in
08:02 56.7 °F 55.8 °F 30.2 in Calm     97 % 0 in
08:07 56.5 °F 55.6 °F 30.2 in Calm     97 % 0 in
08:17 56.1 °F 55.2 °F 30.2 in Calm     97 % 0 in
08:22 56.3 °F 55.4 °F 30.2 in Calm     97 % 0 in
08:37 56.7 °F 55.8 °F 30.2 in Calm     97 % 0 in
08:42 56.7 °F 55.8 °F 30.2 in Calm     97 % 0 in
08:47 56.8 °F 55.9 °F 30.2 in Calm     97 % 0 in
08:57 57 °F 56.1 °F 30.2 in Calm     97 % 0 in
09:02 57 °F 56.1 °F 30.2 in Calm     97 % 0 in
09:07 57.2 °F 56.3 °F 30.2 in Calm     97 % 0 in
09:12 57.4 °F 56.5 °F 30.2 in Calm     97 % 0 in
09:17 57.6 °F 56.7 °F 30.2 in Calm     97 % 0 in
09:22 57.6 °F 56.7 °F 30.2 in Calm     97 % 0 in
09:32 57.9 °F 57 °F 30.2 in Calm     97 % 0 in
09:42 57.9 °F 57 °F 30.2 in Calm     97 % 0 in
09:52 58.1 °F 57.2 °F 30.2 in Calm     97 % 0 in
10:02 58.3 °F 57.4 °F 30.2 in Calm     97 % 0 in
10:12 58.5 °F 57.6 °F 30.2 in SSW 1 mph 4 mph 97 % 0 in
10:17 58.6 °F 57.7 °F 30.2 in South 1 mph 4 mph 97 % 0 in
10:22 58.6 °F 57.7 °F 30.2 in SW 2 mph 4 mph 97 % 0 in
10:27 58.6 °F 57.7 °F 30.2 in SW 1 mph 4 mph 97 % 0 in
10:37 59 °F 58.1 °F 30.2 in SW 2 mph 5 mph 97 % 0 in
10:42 59 °F 58.1 °F 30.2 in SW 2 mph 5 mph 97 % 0 in
10:47 59.2 °F 58.3 °F 30.2 in SSW 1 mph 5 mph 97 % 0 in
10:52 59.2 °F 58.3 °F 30.2 in Calm   4 mph 97 % 0 in
10:57 59.2 °F 58.3 °F 30.2 in SSW 1 mph 4 mph 97 % 0 in
11:02 59.4 °F 58.5 °F 30.2 in SW 1 mph 4 mph 97 % 0 in
11:12 59.5 °F 58.6 °F 30.2 in SSW 1 mph 5 mph 97 % 0 in
11:17 59.5 °F 58.6 °F 30.2 in SW 3 mph 5 mph 97 % 0 in
11:22 59.7 °F 58.8 °F 30.2 in WSW 2 mph 6 mph 97 % 0 in
11:27 59.9 °F 59 °F 30.2 in SSW 3 mph 6 mph 97 % 0 in
11:32 59.9 °F 59 °F 30.2 in SW 6 mph 7 mph 97 % 0 in
11:37 60.1 °F 59.2 °F 30.2 in SSW 4 mph 7 mph 97 % 0 in
11:42 60.3 °F 59.4 °F 30.2 in SSW 1 mph 7 mph 97 % 0 in
11:47 60.3 °F 59.2 °F 30.2 in SSW 2 mph 7 mph 96 % 0 in
11:52 60.4 °F 59.4 °F 30.2 in SSW 3 mph 7 mph 96 % 0 in
12:02 60.6 °F 59.5 °F 30.2 in West 3 mph 6 mph 96 % 0 in
12:07 60.8 °F 59.7 °F 30.2 in SSW 3 mph 6 mph 96 % 0 in
12:12 61.2 °F 60.1 °F 30.2 in SSE 1 mph 6 mph 96 % 0 in
12:17 62.1 °F 61 °F 30.2 in SW 3 mph 6 mph 96 % 0 in
12:22 62.4 °F 60.6 °F 30.2 in SSW 4 mph 6 mph 94 % 0 in
12:32 63 °F 61 °F 30.2 in SW 1 mph 6 mph 93 % 0 in
12:37 63.9 °F 61.2 °F 30.2 in SW 6 mph 8 mph 91 % 0 in
12:42 63.9 °F 61.2 °F 30.2 in West 3 mph 8 mph 91 % 0 in
12:52 64.8 °F 61.2 °F 30.2 in SW 6 mph 8 mph 88 % 0 in
13:02 64.9 °F 60.6 °F 30.2 in WSW 2 mph 8 mph 86 % 0 in
13:12 65.1 °F 60.8 °F 30.2 in SW 4 mph 8 mph 86 % 0 in
13:17 65.7 °F 60.6 °F 30.2 in SW 1 mph 8 mph 84 % 0 in
13:22 65.7 °F 60.4 °F 30.2 in SSW 3 mph 11 mph 83 % 0 in
13:32 65.1 °F 60.4 °F 30.2 in WSW 5 mph 11 mph 85 % 0 in
13:37 65.5 °F 61.2 °F 30.2 in SW 10 mph 11 mph 86 % 0 in
13:42 65.3 °F 60.6 °F 30.2 in WSW 5 mph 11 mph 85 % 0 in
13:47 65.8 °F 61.2 °F 30.2 in SSW 5 mph 11 mph 85 % 0 in
13:52 65.8 °F 59.9 °F 30.2 in West 4 mph 11 mph 81 % 0 in
13:57 65.8 °F 59.9 °F 30.2 in SW 6 mph 11 mph 81 % 0 in
14:02 65.1 °F 59.5 °F 30.2 in West 4 mph 11 mph 82 % 0 in
14:12 65.1 °F 59.5 °F 30.2 in WSW 5 mph 13 mph 82 % 0 in
14:17 65.5 °F 59.9 °F 30.2 in South 7 mph 13 mph 82 % 0 in
14:22 65.7 °F 59 °F 30.2 in SW 7 mph 10 mph 79 % 0 in
14:27 65.7 °F 59.4 °F 30.2 in SW 9 mph 10 mph 80 % 0 in
14:42 66 °F 60.1 °F 30.2 in WSW 3 mph 14 mph 81 % 0 in
14:52 65.1 °F 59.2 °F 30.2 in West 5 mph 14 mph 81 % 0 in
15:02 64.9 °F 59.4 °F 30.2 in WNW 3 mph 11 mph 82 % 0 in
15:07 65.1 °F 59.2 °F 30.2 in West 2 mph 11 mph 81 % 0 in
15:12 65.5 °F 59.5 °F 30.2 in WSW 2 mph 10 mph 81 % 0 in
15:17 65.3 °F 59 °F 30.2 in WNW 2 mph 10 mph 80 % 0 in
15:22 65.1 °F 58.8 °F 30.2 in WNW 2 mph 6 mph 80 % 0 in
15:32 65.5 °F 59.2 °F 30.2 in WSW 2 mph 6 mph 80 % 0 in
15:37 65.8 °F 59.2 °F 30.2 in WNW 3 mph 6 mph 79 % 0 in
15:42 65.8 °F 59.2 °F 30.2 in WNW 3 mph 6 mph 79 % 0 in
15:47 66 °F 58.6 °F 30.2 in WNW 3 mph 6 mph 77 % 0 in
15:52 66.4 °F 59.4 °F 30.2 in WNW 2 mph 6 mph 78 % 0 in
15:57 66.6 °F 58.8 °F 30.2 in Calm   5 mph 76 % 0 in
16:02 66.7 °F 59.7 °F 30.2 in NW 5 mph 5 mph 78 % 0 in
16:12 66.6 °F 59.2 °F 30.2 in Calm   6 mph 77 % 0 in
16:22 66.6 °F 58.1 °F 30.2 in WNW 2 mph 5 mph 74 % 0 in
16:32 66.7 °F 58.6 °F 30.2 in WNW 3 mph 5 mph 75 % 0 in
16:42 66 °F 58.6 °F 30.2 in WNW 3 mph 5 mph 77 % 0 in
16:47 65.8 °F 58.8 °F 30.2 in West 2 mph 5 mph 78 % 0 in
16:52 65.8 °F 58.8 °F 30.2 in NW 2 mph 5 mph 78 % 0 in
16:57 65.7 °F 58.6 °F 30.2 in WNW 4 mph 5 mph 78 % 0 in
17:02 65.5 °F 58.8 °F 30.2 in West 4 mph 5 mph 79 % 0 in
17:07 65.1 °F 58.1 °F 30.2 in West 5 mph 5 mph 78 % 0 in
17:12 64.9 °F 57.9 °F 30.2 in WNW 3 mph 5 mph 78 % 0 in
17:17 64.9 °F 57.9 °F 30.2 in Calm   6 mph 78 % 0 in
17:22 64.9 °F 57.9 °F 30.2 in West 1 mph 6 mph 78 % 0 in
17:27 64.9 °F 57.9 °F 30.2 in West 2 mph 5 mph 78 % 0 in
17:32 64.8 °F 58.1 °F 30.2 in WNW 2 mph 5 mph 79 % 0 in
17:37 64.8 °F 58.1 °F 30.2 in WNW 2 mph 6 mph 79 % 0 in
17:42 64.6 °F 58.3 °F 30.2 in WNW 3 mph 6 mph 80 % 0 in
17:52 64.6 °F 58.3 °F 30.2 in Calm   5 mph 80 % 0 in
17:57 64.6 °F 58.6 °F 30.2 in WNW 2 mph 4 mph 81 % 0 in
18:02 64.4 °F 58.5 °F 30.2 in WNW 1 mph 4 mph 81 % 0 in
18:12 64.2 °F 58.3 °F 30.2 in West 1 mph 3 mph 81 % 0 in
18:17 64 °F 58.5 °F 30.2 in WNW 2 mph 3 mph 82 % 0 in
18:32 63.9 °F 58.3 °F 30.2 in Calm   4 mph 82 % 0 in
18:37 63.9 °F 58.3 °F 30.2 in Calm   4 mph 82 % 0 in
18:42 63.7 °F 58.1 °F 30.2 in NW 1 mph 3 mph 82 % 0 in
18:52 63.5 °F 57.9 °F 30.2 in Calm   3 mph 82 % 0 in
18:57 63.7 °F 58.1 °F 30.2 in Calm   3 mph 82 % 0 in
19:02 63.9 °F 58.6 °F 30.2 in Calm   3 mph 83 % 0 in
19:12 63.7 °F 58.5 °F 30.2 in Calm   2 mph 83 % 0 in
19:17 63.5 °F 58.3 °F 30.2 in Calm     83 % 0 in
19:22 63.3 °F 58.1 °F 30.2 in Calm     83 % 0 in
19:32 63 °F 58.5 °F 30.2 in Calm   1 mph 85 % 0 in
19:37 62.8 °F 58.3 °F 30.2 in Calm   1 mph 85 % 0 in
19:42 62.6 °F 58.1 °F 30.2 in Calm   1 mph 85 % 0 in
19:52 62.4 °F 57.6 °F 30.2 in Calm   1 mph 84 % 0 in
19:57 62.4 °F 57.6 °F 30.2 in Calm   1 mph 84 % 0 in
20:02 62.2 °F 57.4 °F 30.2 in Calm   1 mph 84 % 0 in
20:12 61.9 °F 57.6 °F 30.2 in Calm     86 % 0 in
20:17 61.5 °F 57.4 °F 30.2 in Calm     86 % 0 in
20:22 61.3 °F 57.4 °F 30.2 in Calm     87 % 0 in
20:32 61.3 °F 57.7 °F 30.2 in Calm     88 % 0 in
20:37 61.2 °F 57.6 °F 30.2 in Calm     88 % 0 in
20:42 60.8 °F 57.6 °F 30.2 in Calm     89 % 0 in
20:57 60.8 °F 57.6 °F 30.2 in Calm     89 % 0 in
21:02 60.4 °F 57.6 °F 30.2 in Calm     90 % 0 in
21:12 60.4 °F 57.7 °F 30.2 in Calm     91 % 0 in
21:17 60.6 °F 57.7 °F 30.2 in Calm     90 % 0 in
21:27 60.6 °F 57.7 °F 30.2 in Calm     90 % 0 in
21:32 60.4 °F 57.6 °F 30.2 in Calm     90 % 0 in
21:37 60.3 °F 57.6 °F 30.2 in Calm     91 % 0 in
21:42 60.1 °F 57.4 °F 30.2 in Calm     91 % 0 in
21:47 60.1 °F 57.7 °F 30.2 in Calm     92 % 0 in
21:52 59.9 °F 57.6 °F 30.2 in Calm     92 % 0 in
21:57 59.7 °F 57.4 °F 30.2 in Calm     92 % 0 in
22:02 59.5 °F 57.2 °F 30.2 in Calm     92 % 0 in
22:12 59.2 °F 57.2 °F 30.2 in Calm     93 % 0 in
22:17 59 °F 57 °F 30.2 in Calm     93 % 0 in
22:22 59 °F 57 °F 30.2 in Calm     93 % 0 in
22:32 58.8 °F 57 °F 30.2 in Calm     94 % 0 in
22:37 58.8 °F 57 °F 30.2 in Calm     94 % 0 in
22:42 58.8 °F 57 °F 30.2 in Calm     94 % 0 in
22:47 58.6 °F 56.8 °F 30.2 in Calm     94 % 0 in
22:52 58.5 °F 56.7 °F 30.2 in Calm     94 % 0 in
22:57 58.1 °F 56.3 °F 30.2 in Calm     94 % 0 in
23:02 57.9 °F 56.1 °F 30.2 in Calm     94 % 0 in
23:12 57.7 °F 56.3 °F 30.2 in Calm     95 % 0 in
23:17 57.4 °F 55.6 °F 30.2 in Calm     94 % 0 in
23:22 57.4 °F 55.9 °F 30.2 in Calm     95 % 0 in
23:27 57.2 °F 55.8 °F 30.2 in Calm     95 % 0 in
23:32 57 °F 55.6 °F 30.2 in Calm     95 % 0 in
23:42 56.8 °F 55.4 °F 30.2 in Calm     95 % 0 in
23:47 56.7 °F 55.2 °F 30.2 in Calm     95 % 0 in
23:52 56.5 °F 55 °F 30.2 in Calm     95 % 0 in
23:57 56.5 °F 55.4 °F 30.2 in Calm     96 % 0 in
Meteo18
Compliments of Weather Underground - 4 mb

Script developed by  Jim McMurry - jmcmurry@mwt.net Adapted for the template by  Wim van der Kuil - Leuven-Template.eu

You find our weather info also at:

European Weather Network

Weather Underground

Equipment we use:

Weather-station
Davis Vue

Weather-program
Meteohub

Weather-server
Raspberry PI 2 B+

Provider
1 and 1

Davis Vue

Meteohub

Raspberry PI 2 B+

1 and 1